sensor_id;sensor_type;location;lat;lon;timestamp;P1;durP1;ratioP1;P2;durP2;ratioP2
3359;SDS011;1693;49.602;11.046;2023-11-18T00:00:00;7.40;;;6.40;;
3359;SDS011;1693;49.602;11.046;2023-11-18T00:02:30;9.40;;;7.37;;
3359;SDS011;1693;49.602;11.046;2023-11-18T00:04:58;6.80;;;6.10;;
3359;SDS011;1693;49.602;11.046;2023-11-18T00:07:26;8.73;;;5.90;;
3359;SDS011;1693;49.602;11.046;2023-11-18T00:09:54;8.07;;;6.30;;
3359;SDS011;1693;49.602;11.046;2023-11-18T00:12:21;11.60;;;8.57;;
3359;SDS011;1693;49.602;11.046;2023-11-18T00:14:49;8.90;;;6.40;;
3359;SDS011;1693;49.602;11.046;2023-11-18T00:17:16;8.50;;;6.57;;
3359;SDS011;1693;49.602;11.046;2023-11-18T00:19:45;9.03;;;6.70;;
3359;SDS011;1693;49.602;11.046;2023-11-18T00:22:12;11.43;;;7.90;;
3359;SDS011;1693;49.602;11.046;2023-11-18T00:24:39;8.00;;;5.67;;
3359;SDS011;1693;49.602;11.046;2023-11-18T00:27:06;8.00;;;6.87;;
3359;SDS011;1693;49.602;11.046;2023-11-18T00:29:33;11.30;;;6.13;;
3359;SDS011;1693;49.602;11.046;2023-11-18T00:32:00;8.50;;;7.27;;
3359;SDS011;1693;49.602;11.046;2023-11-18T00:34:28;8.03;;;5.73;;
3359;SDS011;1693;49.602;11.046;2023-11-18T00:36:56;9.23;;;6.57;;
3359;SDS011;1693;49.602;11.046;2023-11-18T00:39:23;6.57;;;5.67;;
3359;SDS011;1693;49.602;11.046;2023-11-18T00:41:52;9.30;;;6.73;;
3359;SDS011;1693;49.602;11.046;2023-11-18T00:44:21;7.17;;;6.33;;
3359;SDS011;1693;49.602;11.046;2023-11-18T00:46:48;6.37;;;5.43;;
3359;SDS011;1693;49.602;11.046;2023-11-18T00:49:15;8.40;;;5.53;;
3359;SDS011;1693;49.602;11.046;2023-11-18T00:51:42;9.13;;;6.00;;
3359;SDS011;1693;49.602;11.046;2023-11-18T00:54:11;6.57;;;5.17;;
3359;SDS011;1693;49.602;11.046;2023-11-18T00:56:38;9.17;;;6.37;;
3359;SDS011;1693;49.602;11.046;2023-11-18T00:59:05;7.70;;;5.30;;
3359;SDS011;1693;49.602;11.046;2023-11-18T01:01:32;8.83;;;6.00;;
3359;SDS011;1693;49.602;11.046;2023-11-18T01:03:59;8.03;;;4.80;;
3359;SDS011;1693;49.602;11.046;2023-11-18T01:06:26;6.50;;;5.80;;
3359;SDS011;1693;49.602;11.046;2023-11-18T01:08:53;7.40;;;5.60;;
3359;SDS011;1693;49.602;11.046;2023-11-18T01:11:22;5.67;;;5.13;;
3359;SDS011;1693;49.602;11.046;2023-11-18T01:13:49;5.97;;;5.27;;
3359;SDS011;1693;49.602;11.046;2023-11-18T01:16:16;9.63;;;6.30;;
3359;SDS011;1693;49.602;11.046;2023-11-18T01:18:44;6.47;;;5.50;;
3359;SDS011;1693;49.602;11.046;2023-11-18T01:21:12;9.63;;;6.83;;
3359;SDS011;1693;49.602;11.046;2023-11-18T01:23:39;6.20;;;4.80;;
3359;SDS011;1693;49.602;11.046;2023-11-18T01:26:10;8.10;;;5.30;;
3359;SDS011;1693;49.602;11.046;2023-11-18T01:28:39;7.70;;;5.70;;
3359;SDS011;1693;49.602;11.046;2023-11-18T01:31:08;7.70;;;5.73;;
3359;SDS011;1693;49.602;11.046;2023-11-18T01:33:36;10.00;;;6.50;;
3359;SDS011;1693;49.602;11.046;2023-11-18T01:36:05;8.90;;;5.97;;
3359;SDS011;1693;49.602;11.046;2023-11-18T01:38:34;9.63;;;6.43;;
3359;SDS011;1693;49.602;11.046;2023-11-18T01:41:02;7.50;;;5.93;;
3359;SDS011;1693;49.602;11.046;2023-11-18T01:43:31;10.50;;;5.90;;
3359;SDS011;1693;49.602;11.046;2023-11-18T01:45:59;7.40;;;5.03;;
3359;SDS011;1693;49.602;11.046;2023-11-18T01:48:29;6.13;;;5.50;;
3359;SDS011;1693;49.602;11.046;2023-11-18T01:50:58;11.83;;;7.03;;
3359;SDS011;1693;49.602;11.046;2023-11-18T01:53:26;10.70;;;7.20;;
3359;SDS011;1693;49.602;11.046;2023-11-18T01:55:54;7.27;;;6.20;;
3359;SDS011;1693;49.602;11.046;2023-11-18T01:58:24;7.17;;;5.30;;
3359;SDS011;1693;49.602;11.046;2023-11-18T02:00:52;8.83;;;5.70;;
3359;SDS011;1693;49.602;11.046;2023-11-18T02:03:21;7.40;;;5.93;;
3359;SDS011;1693;49.602;11.046;2023-11-18T02:05:48;9.97;;;5.57;;
3359;SDS011;1693;49.602;11.046;2023-11-18T02:08:16;7.60;;;6.80;;
3359;SDS011;1693;49.602;11.046;2023-11-18T02:10:45;10.03;;;6.77;;
3359;SDS011;1693;49.602;11.046;2023-11-18T02:13:19;8.17;;;5.80;;
3359;SDS011;1693;49.602;11.046;2023-11-18T02:15:52;13.70;;;6.77;;
3359;SDS011;1693;49.602;11.046;2023-11-18T02:18:23;6.97;;;4.47;;
3359;SDS011;1693;49.602;11.046;2023-11-18T02:20:52;9.63;;;6.77;;
3359;SDS011;1693;49.602;11.046;2023-11-18T02:23:22;7.63;;;6.47;;
3359;SDS011;1693;49.602;11.046;2023-11-18T02:25:52;8.60;;;7.07;;
3359;SDS011;1693;49.602;11.046;2023-11-18T02:28:20;7.53;;;6.40;;
3359;SDS011;1693;49.602;11.046;2023-11-18T02:30:47;11.13;;;6.17;;
3359;SDS011;1693;49.602;11.046;2023-11-18T02:33:22;6.03;;;5.40;;
3359;SDS011;1693;49.602;11.046;2023-11-18T02:35:56;5.43;;;4.80;;
3359;SDS011;1693;49.602;11.046;2023-11-18T02:38:30;12.83;;;6.30;;
3359;SDS011;1693;49.602;11.046;2023-11-18T02:41:04;9.40;;;5.60;;
3359;SDS011;1693;49.602;11.046;2023-11-18T02:43:35;10.63;;;7.17;;
3359;SDS011;1693;49.602;11.046;2023-11-18T02:46:05;6.50;;;4.80;;
3359;SDS011;1693;49.602;11.046;2023-11-18T02:48:33;8.10;;;6.57;;
3359;SDS011;1693;49.602;11.046;2023-11-18T02:51:01;11.13;;;7.07;;
3359;SDS011;1693;49.602;11.046;2023-11-18T02:53:28;8.87;;;6.10;;
3359;SDS011;1693;49.602;11.046;2023-11-18T02:55:55;9.43;;;7.33;;
3359;SDS011;1693;49.602;11.046;2023-11-18T02:58:28;7.20;;;5.40;;
3359;SDS011;1693;49.602;11.046;2023-11-18T03:00:56;8.37;;;5.67;;
3359;SDS011;1693;49.602;11.046;2023-11-18T03:03:25;7.17;;;5.00;;
3359;SDS011;1693;49.602;11.046;2023-11-18T03:05:52;7.83;;;5.90;;
3359;SDS011;1693;49.602;11.046;2023-11-18T03:08:20;8.00;;;5.40;;
3359;SDS011;1693;49.602;11.046;2023-11-18T03:10:47;7.93;;;6.60;;
3359;SDS011;1693;49.602;11.046;2023-11-18T03:13:17;8.40;;;7.53;;
3359;SDS011;1693;49.602;11.046;2023-11-18T03:15:46;6.63;;;5.07;;
3359;SDS011;1693;49.602;11.046;2023-11-18T03:18:13;9.00;;;5.67;;
3359;SDS011;1693;49.602;11.046;2023-11-18T03:20:41;8.80;;;5.27;;
3359;SDS011;1693;49.602;11.046;2023-11-18T03:23:08;8.33;;;5.87;;
3359;SDS011;1693;49.602;11.046;2023-11-18T03:25:36;9.23;;;5.40;;
3359;SDS011;1693;49.602;11.046;2023-11-18T03:28:04;8.57;;;5.90;;
3359;SDS011;1693;49.602;11.046;2023-11-18T03:30:32;9.73;;;6.13;;
3359;SDS011;1693;49.602;11.046;2023-11-18T03:33:03;7.40;;;4.83;;
3359;SDS011;1693;49.602;11.046;2023-11-18T03:35:30;6.83;;;5.87;;
3359;SDS011;1693;49.602;11.046;2023-11-18T03:37:57;7.80;;;5.70;;
3359;SDS011;1693;49.602;11.046;2023-11-18T03:40:24;7.27;;;6.13;;
3359;SDS011;1693;49.602;11.046;2023-11-18T03:42:54;7.77;;;5.47;;
3359;SDS011;1693;49.602;11.046;2023-11-18T03:45:22;9.30;;;6.50;;
3359;SDS011;1693;49.602;11.046;2023-11-18T03:47:49;10.07;;;7.93;;
3359;SDS011;1693;49.602;11.046;2023-11-18T03:50:18;7.30;;;5.57;;
3359;SDS011;1693;49.602;11.046;2023-11-18T03:52:46;16.50;;;7.27;;
3359;SDS011;1693;49.602;11.046;2023-11-18T03:55:13;12.70;;;5.77;;
3359;SDS011;1693;49.602;11.046;2023-11-18T03:57:40;8.83;;;7.27;;
3359;SDS011;1693;49.602;11.046;2023-11-18T04:00:07;10.87;;;5.90;;
3359;SDS011;1693;49.602;11.046;2023-11-18T04:02:36;9.00;;;5.50;;
3359;SDS011;1693;49.602;11.046;2023-11-18T04:05:05;8.27;;;5.80;;
3359;SDS011;1693;49.602;11.046;2023-11-18T04:07:34;7.47;;;5.77;;
3359;SDS011;1693;49.602;11.046;2023-11-18T04:10:01;8.63;;;5.80;;
3359;SDS011;1693;49.602;11.046;2023-11-18T04:12:31;8.90;;;5.50;;
3359;SDS011;1693;49.602;11.046;2023-11-18T04:14:58;7.37;;;5.87;;
3359;SDS011;1693;49.602;11.046;2023-11-18T04:17:25;12.53;;;6.80;;
3359;SDS011;1693;49.602;11.046;2023-11-18T04:19:53;10.17;;;5.87;;
3359;SDS011;1693;49.602;11.046;2023-11-18T04:22:21;12.00;;;8.23;;
3359;SDS011;1693;49.602;11.046;2023-11-18T04:24:49;8.17;;;5.60;;
3359;SDS011;1693;49.602;11.046;2023-11-18T04:27:16;11.07;;;6.90;;
3359;SDS011;1693;49.602;11.046;2023-11-18T04:29:44;9.40;;;6.73;;
3359;SDS011;1693;49.602;11.046;2023-11-18T04:32:11;9.33;;;6.17;;
3359;SDS011;1693;49.602;11.046;2023-11-18T04:34:39;6.30;;;5.63;;
3359;SDS011;1693;49.602;11.046;2023-11-18T04:37:08;7.83;;;6.00;;
3359;SDS011;1693;49.602;11.046;2023-11-18T04:39:36;7.27;;;5.43;;
3359;SDS011;1693;49.602;11.046;2023-11-18T04:42:05;6.83;;;5.73;;
3359;SDS011;1693;49.602;11.046;2023-11-18T04:44:32;7.90;;;6.57;;
3359;SDS011;1693;49.602;11.046;2023-11-18T04:46:59;9.80;;;6.10;;
3359;SDS011;1693;49.602;11.046;2023-11-18T04:49:27;7.23;;;5.90;;
3359;SDS011;1693;49.602;11.046;2023-11-18T04:51:54;9.40;;;6.00;;
3359;SDS011;1693;49.602;11.046;2023-11-18T04:54:21;6.97;;;5.27;;
3359;SDS011;1693;49.602;11.046;2023-11-18T04:56:48;6.33;;;5.47;;
3359;SDS011;1693;49.602;11.046;2023-11-18T04:59:16;6.43;;;5.30;;
3359;SDS011;1693;49.602;11.046;2023-11-18T05:01:43;8.97;;;5.40;;
3359;SDS011;1693;49.602;11.046;2023-11-18T05:04:11;8.20;;;6.10;;
3359;SDS011;1693;49.602;11.046;2023-11-18T05:06:38;5.90;;;4.53;;
3359;SDS011;1693;49.602;11.046;2023-11-18T05:09:05;8.00;;;5.10;;
3359;SDS011;1693;49.602;11.046;2023-11-18T05:11:33;8.23;;;5.30;;
3359;SDS011;1693;49.602;11.046;2023-11-18T05:14:02;8.90;;;5.93;;
3359;SDS011;1693;49.602;11.046;2023-11-18T05:16:31;6.70;;;5.00;;
3359;SDS011;1693;49.602;11.046;2023-11-18T05:18:58;7.53;;;4.93;;
3359;SDS011;1693;49.602;11.046;2023-11-18T05:21:25;8.50;;;5.87;;
3359;SDS011;1693;49.602;11.046;2023-11-18T05:23:52;9.83;;;5.97;;
3359;SDS011;1693;49.602;11.046;2023-11-18T05:26:20;9.47;;;5.90;;
3359;SDS011;1693;49.602;11.046;2023-11-18T05:28:47;7.30;;;5.77;;
3359;SDS011;1693;49.602;11.046;2023-11-18T05:31:15;8.10;;;5.23;;
3359;SDS011;1693;49.602;11.046;2023-11-18T05:33:43;10.13;;;5.80;;
3359;SDS011;1693;49.602;11.046;2023-11-18T05:36:16;9.63;;;5.57;;
3359;SDS011;1693;49.602;11.046;2023-11-18T05:38:51;8.73;;;5.70;;
3359;SDS011;1693;49.602;11.046;2023-11-18T05:41:19;13.33;;;6.93;;
3359;SDS011;1693;49.602;11.046;2023-11-18T05:43:52;8.87;;;5.53;;
3359;SDS011;1693;49.602;11.046;2023-11-18T05:46:22;7.70;;;5.30;;
3359;SDS011;1693;49.602;11.046;2023-11-18T05:48:52;0.90;;;0.73;;
3359;SDS011;1693;49.602;11.046;2023-11-18T05:51:20;0.83;;;0.73;;
3359;SDS011;1693;49.602;11.046;2023-11-18T05:53:48;1.10;;;0.77;;
3359;SDS011;1693;49.602;11.046;2023-11-18T05:56:16;1.90;;;1.80;;
3359;SDS011;1693;49.602;11.046;2023-11-18T05:58:43;3.70;;;2.50;;
3359;SDS011;1693;49.602;11.046;2023-11-18T06:01:10;0.90;;;0.60;;
3359;SDS011;1693;49.602;11.046;2023-11-18T06:03:38;1.17;;;1.07;;
3359;SDS011;1693;49.602;11.046;2023-11-18T06:06:07;0.80;;;0.50;;
3359;SDS011;1693;49.602;11.046;2023-11-18T06:08:36;0.80;;;0.50;;
3359;SDS011;1693;49.602;11.046;2023-11-18T06:11:06;0.80;;;0.50;;
3359;SDS011;1693;49.602;11.046;2023-11-18T06:13:39;1.33;;;1.23;;
3359;SDS011;1693;49.602;11.046;2023-11-18T06:16:09;2.83;;;1.33;;
3359;SDS011;1693;49.602;11.046;2023-11-18T06:18:40;0.80;;;0.53;;
3359;SDS011;1693;49.602;11.046;2023-11-18T06:21:11;1.10;;;1.00;;
3359;SDS011;1693;49.602;11.046;2023-11-18T06:23:39;0.93;;;0.83;;
3359;SDS011;1693;49.602;11.046;2023-11-18T06:26:07;1.03;;;0.93;;
3359;SDS011;1693;49.602;11.046;2023-11-18T06:28:35;0.90;;;0.70;;
3359;SDS011;1693;49.602;11.046;2023-11-18T06:31:04;2.23;;;1.47;;
3359;SDS011;1693;49.602;11.046;2023-11-18T06:33:36;0.80;;;0.50;;
3359;SDS011;1693;49.602;11.046;2023-11-18T06:36:05;2.07;;;1.97;;
3359;SDS011;1693;49.602;11.046;2023-11-18T06:38:35;1.20;;;0.93;;
3359;SDS011;1693;49.602;11.046;2023-11-18T06:41:02;0.80;;;0.60;;
3359;SDS011;1693;49.602;11.046;2023-11-18T06:43:34;1.53;;;1.23;;
3359;SDS011;1693;49.602;11.046;2023-11-18T06:46:16;1.33;;;1.23;;
3359;SDS011;1693;49.602;11.046;2023-11-18T06:48:46;1.87;;;1.43;;
3359;SDS011;1693;49.602;11.046;2023-11-18T06:51:14;0.80;;;0.70;;
3359;SDS011;1693;49.602;11.046;2023-11-18T06:53:43;1.97;;;1.70;;
3359;SDS011;1693;49.602;11.046;2023-11-18T06:56:10;1.90;;;1.80;;
3359;SDS011;1693;49.602;11.046;2023-11-18T06:58:38;4.20;;;2.50;;
3359;SDS011;1693;49.602;11.046;2023-11-18T07:01:07;0.80;;;0.50;;
3359;SDS011;1693;49.602;11.046;2023-11-18T07:03:35;2.03;;;1.00;;
3359;SDS011;1693;49.602;11.046;2023-11-18T07:06:02;4.40;;;4.00;;
3359;SDS011;1693;49.602;11.046;2023-11-18T07:08:30;1.63;;;0.97;;
3359;SDS011;1693;49.602;11.046;2023-11-18T07:10:59;1.43;;;1.33;;
3359;SDS011;1693;49.602;11.046;2023-11-18T07:13:26;1.47;;;1.37;;
3359;SDS011;1693;49.602;11.046;2023-11-18T07:15:53;1.53;;;1.20;;
3359;SDS011;1693;49.602;11.046;2023-11-18T07:18:22;1.37;;;1.27;;
3359;SDS011;1693;49.602;11.046;2023-11-18T07:20:49;0.80;;;0.60;;
3359;SDS011;1693;49.602;11.046;2023-11-18T07:23:17;1.43;;;1.33;;
3359;SDS011;1693;49.602;11.046;2023-11-18T07:25:44;3.27;;;2.10;;
3359;SDS011;1693;49.602;11.046;2023-11-18T07:28:13;2.77;;;2.57;;
3359;SDS011;1693;49.602;11.046;2023-11-18T07:30:42;0.90;;;0.80;;
3359;SDS011;1693;49.602;11.046;2023-11-18T07:33:12;2.60;;;2.40;;
3359;SDS011;1693;49.602;11.046;2023-11-18T07:35:39;4.80;;;2.20;;
3359;SDS011;1693;49.602;11.046;2023-11-18T07:38:07;1.60;;;1.37;;
3359;SDS011;1693;49.602;11.046;2023-11-18T07:40:34;0.90;;;0.67;;
3359;SDS011;1693;49.602;11.046;2023-11-18T07:43:02;1.33;;;1.23;;
3359;SDS011;1693;49.602;11.046;2023-11-18T07:45:35;1.93;;;1.83;;
3359;SDS011;1693;49.602;11.046;2023-11-18T07:48:04;1.17;;;1.07;;
3359;SDS011;1693;49.602;11.046;2023-11-18T07:50:32;1.33;;;1.23;;
3359;SDS011;1693;49.602;11.046;2023-11-18T07:53:00;0.90;;;0.60;;
3359;SDS011;1693;49.602;11.046;2023-11-18T07:55:27;1.23;;;0.93;;
3359;SDS011;1693;49.602;11.046;2023-11-18T07:57:54;1.23;;;1.13;;
3359;SDS011;1693;49.602;11.046;2023-11-18T08:00:21;1.53;;;1.43;;
3359;SDS011;1693;49.602;11.046;2023-11-18T08:02:51;2.23;;;2.03;;
3359;SDS011;1693;49.602;11.046;2023-11-18T08:05:19;0.93;;;0.83;;
3359;SDS011;1693;49.602;11.046;2023-11-18T08:07:48;1.00;;;0.90;;
3359;SDS011;1693;49.602;11.046;2023-11-18T08:10:16;2.30;;;2.20;;
3359;SDS011;1693;49.602;11.046;2023-11-18T08:12:44;2.10;;;1.93;;
3359;SDS011;1693;49.602;11.046;2023-11-18T08:15:12;1.97;;;1.17;;
3359;SDS011;1693;49.602;11.046;2023-11-18T08:17:40;2.10;;;1.93;;
3359;SDS011;1693;49.602;11.046;2023-11-18T08:20:08;2.60;;;2.00;;
3359;SDS011;1693;49.602;11.046;2023-11-18T08:22:39;1.77;;;0.80;;
3359;SDS011;1693;49.602;11.046;2023-11-18T08:25:09;1.23;;;1.07;;
3359;SDS011;1693;49.602;11.046;2023-11-18T08:27:38;0.90;;;0.80;;
3359;SDS011;1693;49.602;11.046;2023-11-18T08:30:06;1.00;;;0.87;;
3359;SDS011;1693;49.602;11.046;2023-11-18T08:32:36;2.13;;;2.00;;
3359;SDS011;1693;49.602;11.046;2023-11-18T08:35:04;7.77;;;2.10;;
3359;SDS011;1693;49.602;11.046;2023-11-18T08:37:34;1.90;;;1.80;;
3359;SDS011;1693;49.602;11.046;2023-11-18T08:40:02;3.40;;;2.63;;
3359;SDS011;1693;49.602;11.046;2023-11-18T08:42:32;2.10;;;1.43;;
3359;SDS011;1693;49.602;11.046;2023-11-18T08:44:59;1.50;;;1.37;;
3359;SDS011;1693;49.602;11.046;2023-11-18T08:47:26;1.43;;;1.13;;
3359;SDS011;1693;49.602;11.046;2023-11-18T08:49:54;2.30;;;1.77;;
3359;SDS011;1693;49.602;11.046;2023-11-18T08:52:21;1.53;;;1.13;;
3359;SDS011;1693;49.602;11.046;2023-11-18T08:54:52;0.90;;;0.80;;
3359;SDS011;1693;49.602;11.046;2023-11-18T08:57:36;1.83;;;1.73;;
3359;SDS011;1693;49.602;11.046;2023-11-18T09:00:17;0.80;;;0.60;;
3359;SDS011;1693;49.602;11.046;2023-11-18T09:02:58;4.13;;;2.43;;
3359;SDS011;1693;49.602;11.046;2023-11-18T09:05:26;2.17;;;1.50;;
3359;SDS011;1693;49.602;11.046;2023-11-18T09:07:56;1.20;;;0.80;;
3359;SDS011;1693;49.602;11.046;2023-11-18T09:10:27;4.20;;;2.70;;
3359;SDS011;1693;49.602;11.046;2023-11-18T09:12:54;1.60;;;1.47;;
3359;SDS011;1693;49.602;11.046;2023-11-18T09:15:22;1.93;;;1.73;;
3359;SDS011;1693;49.602;11.046;2023-11-18T09:17:49;2.27;;;1.90;;
3359;SDS011;1693;49.602;11.046;2023-11-18T09:20:18;2.90;;;2.20;;
3359;SDS011;1693;49.602;11.046;2023-11-18T09:22:47;3.90;;;1.57;;
3359;SDS011;1693;49.602;11.046;2023-11-18T09:25:21;2.20;;;2.00;;
3359;SDS011;1693;49.602;11.046;2023-11-18T09:27:49;1.50;;;1.20;;
3359;SDS011;1693;49.602;11.046;2023-11-18T09:30:17;1.10;;;0.93;;
3359;SDS011;1693;49.602;11.046;2023-11-18T09:32:45;1.37;;;1.27;;
3359;SDS011;1693;49.602;11.046;2023-11-18T09:35:18;1.63;;;1.53;;
3359;SDS011;1693;49.602;11.046;2023-11-18T09:37:53;1.60;;;1.50;;
3359;SDS011;1693;49.602;11.046;2023-11-18T09:40:20;1.00;;;0.70;;
3359;SDS011;1693;49.602;11.046;2023-11-18T09:42:56;3.10;;;2.03;;
3359;SDS011;1693;49.602;11.046;2023-11-18T09:45:23;3.87;;;3.50;;
3359;SDS011;1693;49.602;11.046;2023-11-18T09:47:53;2.03;;;1.87;;
3359;SDS011;1693;49.602;11.046;2023-11-18T09:50:20;2.60;;;2.40;;
3359;SDS011;1693;49.602;11.046;2023-11-18T09:52:54;1.17;;;0.80;;
3359;SDS011;1693;49.602;11.046;2023-11-18T09:55:41;6.70;;;2.60;;
3359;SDS011;1693;49.602;11.046;2023-11-18T09:58:17;2.10;;;1.97;;
3359;SDS011;1693;49.602;11.046;2023-11-18T10:00:49;2.03;;;1.83;;
3359;SDS011;1693;49.602;11.046;2023-11-18T10:03:21;5.63;;;2.03;;
3359;SDS011;1693;49.602;11.046;2023-11-18T10:05:48;7.10;;;5.20;;
3359;SDS011;1693;49.602;11.046;2023-11-18T10:08:19;11.60;;;6.60;;
3359;SDS011;1693;49.602;11.046;2023-11-18T10:10:51;2.40;;;2.03;;
3359;SDS011;1693;49.602;11.046;2023-11-18T10:13:31;5.83;;;3.67;;
3359;SDS011;1693;49.602;11.046;2023-11-18T10:16:01;4.87;;;3.60;;
3359;SDS011;1693;49.602;11.046;2023-11-18T10:18:30;10.80;;;7.27;;
3359;SDS011;1693;49.602;11.046;2023-11-18T10:21:00;11.43;;;7.57;;
3359;SDS011;1693;49.602;11.046;2023-11-18T10:23:29;4.50;;;2.83;;
3359;SDS011;1693;49.602;11.046;2023-11-18T10:25:59;2.63;;;2.30;;
3359;SDS011;1693;49.602;11.046;2023-11-18T10:28:29;8.90;;;5.33;;
3359;SDS011;1693;49.602;11.046;2023-11-18T10:31:03;18.00;;;8.13;;
3359;SDS011;1693;49.602;11.046;2023-11-18T10:33:31;13.17;;;7.70;;
3359;SDS011;1693;49.602;11.046;2023-11-18T10:36:01;11.63;;;7.00;;
3359;SDS011;1693;49.602;11.046;2023-11-18T10:38:38;8.67;;;6.00;;
3359;SDS011;1693;49.602;11.046;2023-11-18T10:41:08;13.07;;;9.63;;
3359;SDS011;1693;49.602;11.046;2023-11-18T10:43:38;8.57;;;6.33;;
3359;SDS011;1693;49.602;11.046;2023-11-18T10:46:07;14.90;;;8.17;;
3359;SDS011;1693;49.602;11.046;2023-11-18T10:48:39;11.70;;;8.13;;
3359;SDS011;1693;49.602;11.046;2023-11-18T10:51:21;14.80;;;7.10;;
3359;SDS011;1693;49.602;11.046;2023-11-18T10:53:52;8.43;;;5.70;;
3359;SDS011;1693;49.602;11.046;2023-11-18T10:56:23;9.00;;;8.10;;
3359;SDS011;1693;49.602;11.046;2023-11-18T10:58:53;7.00;;;6.00;;
3359;SDS011;1693;49.602;11.046;2023-11-18T11:01:29;8.70;;;6.83;;
3359;SDS011;1693;49.602;11.046;2023-11-18T11:03:57;11.37;;;7.43;;
3359;SDS011;1693;49.602;11.046;2023-11-18T11:06:26;8.70;;;5.60;;
3359;SDS011;1693;49.602;11.046;2023-11-18T11:08:55;3.60;;;3.30;;
3359;SDS011;1693;49.602;11.046;2023-11-18T11:11:24;3.87;;;2.63;;
3359;SDS011;1693;49.602;11.046;2023-11-18T11:13:56;7.53;;;6.60;;
3359;SDS011;1693;49.602;11.046;2023-11-18T11:16:25;9.57;;;7.17;;
3359;SDS011;1693;49.602;11.046;2023-11-18T11:18:58;9.53;;;7.03;;
3359;SDS011;1693;49.602;11.046;2023-11-18T11:21:36;10.80;;;7.90;;
3359;SDS011;1693;49.602;11.046;2023-11-18T11:24:09;5.00;;;3.73;;
3359;SDS011;1693;49.602;11.046;2023-11-18T11:26:40;7.20;;;4.17;;
3359;SDS011;1693;49.602;11.046;2023-11-18T11:29:14;7.60;;;5.43;;
3359;SDS011;1693;49.602;11.046;2023-11-18T11:31:45;6.70;;;4.53;;
3359;SDS011;1693;49.602;11.046;2023-11-18T11:34:17;10.53;;;5.47;;
3359;SDS011;1693;49.602;11.046;2023-11-18T11:36:47;21.53;;;12.53;;
3359;SDS011;1693;49.602;11.046;2023-11-18T11:39:16;6.47;;;5.87;;
3359;SDS011;1693;49.602;11.046;2023-11-18T11:41:50;3.77;;;2.60;;
3359;SDS011;1693;49.602;11.046;2023-11-18T11:44:21;6.93;;;5.20;;
3359;SDS011;1693;49.602;11.046;2023-11-18T11:46:53;3.20;;;2.67;;
3359;SDS011;1693;49.602;11.046;2023-11-18T11:49:25;11.93;;;6.17;;
3359;SDS011;1693;49.602;11.046;2023-11-18T11:51:56;9.60;;;6.13;;
3359;SDS011;1693;49.602;11.046;2023-11-18T11:54:31;4.53;;;3.83;;
3359;SDS011;1693;49.602;11.046;2023-11-18T11:57:04;2.17;;;1.73;;
3359;SDS011;1693;49.602;11.046;2023-11-18T11:59:36;7.10;;;3.83;;
3359;SDS011;1693;49.602;11.046;2023-11-18T12:02:21;6.67;;;5.43;;
3359;SDS011;1693;49.602;11.046;2023-11-18T12:04:51;8.63;;;5.13;;
3359;SDS011;1693;49.602;11.046;2023-11-18T12:07:21;7.80;;;6.53;;
3359;SDS011;1693;49.602;11.046;2023-11-18T12:09:55;6.77;;;4.17;;
3359;SDS011;1693;49.602;11.046;2023-11-18T12:12:23;10.53;;;5.30;;
3359;SDS011;1693;49.602;11.046;2023-11-18T12:14:55;7.23;;;5.73;;
3359;SDS011;1693;49.602;11.046;2023-11-18T12:17:26;9.90;;;4.77;;
3359;SDS011;1693;49.602;11.046;2023-11-18T12:19:57;9.60;;;5.50;;
3359;SDS011;1693;49.602;11.046;2023-11-18T12:22:25;5.03;;;4.30;;
3359;SDS011;1693;49.602;11.046;2023-11-18T12:27:45;6.03;;;4.17;;
3359;SDS011;1693;49.602;11.046;2023-11-18T12:33:05;5.40;;;4.47;;
3359;SDS011;1693;49.602;11.046;2023-11-18T12:35:37;7.10;;;5.17;;
3359;SDS011;1693;49.602;11.046;2023-11-18T12:38:16;5.57;;;3.90;;
3359;SDS011;1693;49.602;11.046;2023-11-18T12:40:53;5.43;;;4.83;;
3359;SDS011;1693;49.602;11.046;2023-11-18T12:43:30;6.20;;;4.77;;
3359;SDS011;1693;49.602;11.046;2023-11-18T12:48:51;8.33;;;5.00;;
3359;SDS011;1693;49.602;11.046;2023-11-18T12:51:25;7.40;;;5.03;;
3359;SDS011;1693;49.602;11.046;2023-11-18T12:53:52;5.00;;;3.70;;
3359;SDS011;1693;49.602;11.046;2023-11-18T12:56:20;5.83;;;4.67;;
3359;SDS011;1693;49.602;11.046;2023-11-18T12:58:48;5.97;;;5.00;;
3359;SDS011;1693;49.602;11.046;2023-11-18T13:01:16;8.30;;;5.20;;
3359;SDS011;1693;49.602;11.046;2023-11-18T13:03:44;7.10;;;4.97;;
3359;SDS011;1693;49.602;11.046;2023-11-18T13:06:13;2.20;;;1.73;;
3359;SDS011;1693;49.602;11.046;2023-11-18T13:08:41;9.10;;;5.50;;
3359;SDS011;1693;49.602;11.046;2023-11-18T13:11:08;6.10;;;4.73;;
3359;SDS011;1693;49.602;11.046;2023-11-18T13:13:40;8.33;;;4.50;;
3359;SDS011;1693;49.602;11.046;2023-11-18T13:16:08;6.13;;;3.97;;
3359;SDS011;1693;49.602;11.046;2023-11-18T13:18:42;7.23;;;4.30;;
3359;SDS011;1693;49.602;11.046;2023-11-18T13:21:17;7.27;;;4.73;;
3359;SDS011;1693;49.602;11.046;2023-11-18T13:23:45;7.50;;;4.57;;
3359;SDS011;1693;49.602;11.046;2023-11-18T13:26:13;3.93;;;2.43;;
3359;SDS011;1693;49.602;11.046;2023-11-18T13:28:40;3.40;;;2.90;;
3359;SDS011;1693;49.602;11.046;2023-11-18T13:31:08;5.07;;;4.40;;
3359;SDS011;1693;49.602;11.046;2023-11-18T13:33:37;4.93;;;3.93;;
3359;SDS011;1693;49.602;11.046;2023-11-18T13:36:05;7.93;;;5.47;;
3359;SDS011;1693;49.602;11.046;2023-11-18T13:38:36;5.60;;;4.27;;
3359;SDS011;1693;49.602;11.046;2023-11-18T13:41:04;6.57;;;4.10;;
3359;SDS011;1693;49.602;11.046;2023-11-18T13:43:43;5.30;;;4.30;;
3359;SDS011;1693;49.602;11.046;2023-11-18T13:46:13;7.23;;;4.57;;
3359;SDS011;1693;49.602;11.046;2023-11-18T13:48:46;11.30;;;5.50;;
3359;SDS011;1693;49.602;11.046;2023-11-18T13:51:14;7.83;;;5.80;;
3359;SDS011;1693;49.602;11.046;2023-11-18T13:53:45;6.47;;;4.60;;
3359;SDS011;1693;49.602;11.046;2023-11-18T13:56:14;6.57;;;5.97;;
3359;SDS011;1693;49.602;11.046;2023-11-18T13:58:42;7.60;;;5.80;;
3359;SDS011;1693;49.602;11.046;2023-11-18T14:01:11;5.70;;;4.37;;
3359;SDS011;1693;49.602;11.046;2023-11-18T14:03:39;5.97;;;5.10;;
3359;SDS011;1693;49.602;11.046;2023-11-18T14:06:09;7.67;;;6.13;;
3359;SDS011;1693;49.602;11.046;2023-11-18T14:08:37;8.90;;;5.57;;
3359;SDS011;1693;49.602;11.046;2023-11-18T14:11:06;7.20;;;5.27;;
3359;SDS011;1693;49.602;11.046;2023-11-18T14:13:34;7.53;;;4.97;;
3359;SDS011;1693;49.602;11.046;2023-11-18T14:16:03;7.37;;;5.47;;
3359;SDS011;1693;49.602;11.046;2023-11-18T14:18:34;6.20;;;4.33;;
3359;SDS011;1693;49.602;11.046;2023-11-18T14:21:03;7.43;;;5.00;;
3359;SDS011;1693;49.602;11.046;2023-11-18T14:23:31;9.20;;;6.00;;
3359;SDS011;1693;49.602;11.046;2023-11-18T14:25:58;7.30;;;5.73;;
3359;SDS011;1693;49.602;11.046;2023-11-18T14:28:27;7.57;;;5.07;;
3359;SDS011;1693;49.602;11.046;2023-11-18T14:30:54;9.03;;;5.80;;
3359;SDS011;1693;49.602;11.046;2023-11-18T14:33:22;7.80;;;5.57;;
3359;SDS011;1693;49.602;11.046;2023-11-18T14:35:49;8.00;;;5.50;;
3359;SDS011;1693;49.602;11.046;2023-11-18T14:38:16;6.40;;;5.33;;
3359;SDS011;1693;49.602;11.046;2023-11-18T14:40:45;8.97;;;5.70;;
3359;SDS011;1693;49.602;11.046;2023-11-18T14:43:13;7.27;;;4.40;;
3359;SDS011;1693;49.602;11.046;2023-11-18T14:48:46;8.60;;;5.43;;
3359;SDS011;1693;49.602;11.046;2023-11-18T14:51:13;11.43;;;6.40;;
3359;SDS011;1693;49.602;11.046;2023-11-18T14:53:41;8.20;;;5.37;;
3359;SDS011;1693;49.602;11.046;2023-11-18T14:56:09;7.00;;;4.87;;
3359;SDS011;1693;49.602;11.046;2023-11-18T14:58:36;8.87;;;5.47;;
3359;SDS011;1693;49.602;11.046;2023-11-18T15:01:03;7.40;;;6.40;;
3359;SDS011;1693;49.602;11.046;2023-11-18T15:03:32;7.17;;;4.63;;
3359;SDS011;1693;49.602;11.046;2023-11-18T15:06:01;6.93;;;5.83;;
3359;SDS011;1693;49.602;11.046;2023-11-18T15:08:31;7.00;;;5.70;;
3359;SDS011;1693;49.602;11.046;2023-11-18T15:10:58;8.83;;;6.50;;
3359;SDS011;1693;49.602;11.046;2023-11-18T15:13:26;10.73;;;6.63;;
3359;SDS011;1693;49.602;11.046;2023-11-18T15:15:53;12.47;;;8.50;;
3359;SDS011;1693;49.602;11.046;2023-11-18T15:18:21;7.23;;;5.90;;
3359;SDS011;1693;49.602;11.046;2023-11-18T15:20:48;8.53;;;5.70;;
3359;SDS011;1693;49.602;11.046;2023-11-18T15:23:18;10.43;;;6.30;;